sensor_id;sensor_type;location;lat;lon;timestamp;temperature;humidity
76537;DHT22;65381;51.254;15.592;2023-02-18T00:01:52;8.30;71.80
76537;DHT22;65381;51.254;15.592;2023-02-18T00:04:19;8.30;71.80
76537;DHT22;65381;51.254;15.592;2023-02-18T00:06:48;8.30;71.60
76537;DHT22;65381;51.254;15.592;2023-02-18T00:09:16;8.30;71.40
76537;DHT22;65381;51.254;15.592;2023-02-18T00:11:44;8.30;71.40
76537;DHT22;65381;51.254;15.592;2023-02-18T00:14:14;8.20;71.10
76537;DHT22;65381;51.254;15.592;2023-02-18T00:16:43;8.20;71.40
76537;DHT22;65381;51.254;15.592;2023-02-18T00:19:17;8.20;71.50
76537;DHT22;65381;51.254;15.592;2023-02-18T00:21:45;8.10;71.70
76537;DHT22;65381;51.254;15.592;2023-02-18T00:24:14;8.10;72.10
76537;DHT22;65381;51.254;15.592;2023-02-18T00:26:43;8.00;72.50
76537;DHT22;65381;51.254;15.592;2023-02-18T00:29:14;8.00;72.90
76537;DHT22;65381;51.254;15.592;2023-02-18T00:31:42;8.00;73.20
76537;DHT22;65381;51.254;15.592;2023-02-18T00:34:11;8.00;73.50
76537;DHT22;65381;51.254;15.592;2023-02-18T00:36:40;7.90;73.70
76537;DHT22;65381;51.254;15.592;2023-02-18T00:39:09;7.90;73.80
76537;DHT22;65381;51.254;15.592;2023-02-18T00:41:39;7.90;73.70
76537;DHT22;65381;51.254;15.592;2023-02-18T00:44:07;7.90;73.50
76537;DHT22;65381;51.254;15.592;2023-02-18T00:46:35;7.90;73.00
76537;DHT22;65381;51.254;15.592;2023-02-18T00:49:06;8.00;72.30
76537;DHT22;65381;51.254;15.592;2023-02-18T00:51:35;8.00;71.80
76537;DHT22;65381;51.254;15.592;2023-02-18T00:54:03;7.90;71.60
76537;DHT22;65381;51.254;15.592;2023-02-18T00:56:34;7.90;71.20
76537;DHT22;65381;51.254;15.592;2023-02-18T00:59:21;7.80;71.00
76537;DHT22;65381;51.254;15.592;2023-02-18T01:01:50;7.80;70.60
76537;DHT22;65381;51.254;15.592;2023-02-18T01:04:20;7.80;70.20
76537;DHT22;65381;51.254;15.592;2023-02-18T01:06:48;7.70;69.70
76537;DHT22;65381;51.254;15.592;2023-02-18T01:09:17;7.70;69.20
76537;DHT22;65381;51.254;15.592;2023-02-18T01:11:45;7.60;69.00
76537;DHT22;65381;51.254;15.592;2023-02-18T01:14:14;7.60;68.90
76537;DHT22;65381;51.254;15.592;2023-02-18T01:16:43;7.60;68.40
76537;DHT22;65381;51.254;15.592;2023-02-18T01:19:11;7.50;68.70
76537;DHT22;65381;51.254;15.592;2023-02-18T01:21:40;7.50;68.60
76537;DHT22;65381;51.254;15.592;2023-02-18T01:24:07;7.40;68.30
76537;DHT22;65381;51.254;15.592;2023-02-18T01:26:36;7.40;68.50
76537;DHT22;65381;51.254;15.592;2023-02-18T01:29:04;7.20;68.00
76537;DHT22;65381;51.254;15.592;2023-02-18T01:31:32;7.20;67.90
76537;DHT22;65381;51.254;15.592;2023-02-18T01:34:00;7.20;67.70
76537;DHT22;65381;51.254;15.592;2023-02-18T01:36:28;7.20;67.60
76537;DHT22;65381;51.254;15.592;2023-02-18T01:38:57;7.20;67.50
76537;DHT22;65381;51.254;15.592;2023-02-18T01:41:28;7.20;67.50
76537;DHT22;65381;51.254;15.592;2023-02-18T01:44:18;7.10;67.30
76537;DHT22;65381;51.254;15.592;2023-02-18T01:46:47;7.00;67.40
76537;DHT22;65381;51.254;15.592;2023-02-18T01:49:20;7.00;67.50
76537;DHT22;65381;51.254;15.592;2023-02-18T01:51:55;7.00;67.30
76537;DHT22;65381;51.254;15.592;2023-02-18T01:54:29;7.00;66.90
76537;DHT22;65381;51.254;15.592;2023-02-18T01:57:03;7.00;67.00
76537;DHT22;65381;51.254;15.592;2023-02-18T02:00:06;7.00;66.90
76537;DHT22;65381;51.254;15.592;2023-02-18T02:02:44;6.90;66.70
76537;DHT22;65381;51.254;15.592;2023-02-18T02:05:14;6.90;66.10
76537;DHT22;65381;51.254;15.592;2023-02-18T02:07:44;7.00;66.10
76537;DHT22;65381;51.254;15.592;2023-02-18T02:10:13;6.90;65.90
76537;DHT22;65381;51.254;15.592;2023-02-18T02:16:00;6.80;66.10
76537;DHT22;65381;51.254;15.592;2023-02-18T02:30:00;6.80;64.90
76537;DHT22;65381;51.254;15.592;2023-02-18T02:36:10;6.70;65.00
76537;DHT22;65381;51.254;15.592;2023-02-18T02:38:06;6.70;65.00
76537;DHT22;65381;51.254;15.592;2023-02-18T02:40:43;6.70;64.90
76537;DHT22;65381;51.254;15.592;2023-02-18T02:46:10;6.50;65.00
76537;DHT22;65381;51.254;15.592;2023-02-18T02:51:24;6.50;65.40
76537;DHT22;65381;51.254;15.592;2023-02-18T02:54:13;6.40;65.30
76537;DHT22;65381;51.254;15.592;2023-02-18T02:56:42;6.30;65.30
76537;DHT22;65381;51.254;15.592;2023-02-18T02:59:18;6.30;65.30
76537;DHT22;65381;51.254;15.592;2023-02-18T03:04:46;6.30;65.40
76537;DHT22;65381;51.254;15.592;2023-02-18T03:19:12;6.20;65.80
76537;DHT22;65381;51.254;15.592;2023-02-18T03:21:59;6.10;66.00
76537;DHT22;65381;51.254;15.592;2023-02-18T03:24:40;6.10;66.20
76537;DHT22;65381;51.254;15.592;2023-02-18T03:30:12;6.10;66.10
76537;DHT22;65381;51.254;15.592;2023-02-18T03:32:41;6.10;66.10
76537;DHT22;65381;51.254;15.592;2023-02-18T03:35:14;6.10;66.10
76537;DHT22;65381;51.254;15.592;2023-02-18T03:37:57;6.10;65.90
76537;DHT22;65381;51.254;15.592;2023-02-18T03:40:32;6.00;65.90
76537;DHT22;65381;51.254;15.592;2023-02-18T03:43:01;6.10;66.00
76537;DHT22;65381;51.254;15.592;2023-02-18T03:45:29;6.00;66.00
76537;DHT22;65381;51.254;15.592;2023-02-18T03:47:58;6.00;66.00
76537;DHT22;65381;51.254;15.592;2023-02-18T03:50:26;6.00;65.90
76537;DHT22;65381;51.254;15.592;2023-02-18T03:52:54;6.10;65.70
76537;DHT22;65381;51.254;15.592;2023-02-18T03:55:23;6.10;65.60
76537;DHT22;65381;51.254;15.592;2023-02-18T03:57:51;6.20;65.50
76537;DHT22;65381;51.254;15.592;2023-02-18T04:00:19;6.20;65.30
76537;DHT22;65381;51.254;15.592;2023-02-18T04:02:48;6.20;65.30
76537;DHT22;65381;51.254;15.592;2023-02-18T04:05:16;6.20;65.30
76537;DHT22;65381;51.254;15.592;2023-02-18T04:07:44;6.30;65.20
76537;DHT22;65381;51.254;15.592;2023-02-18T04:10:12;6.30;65.30
76537;DHT22;65381;51.254;15.592;2023-02-18T04:12:40;6.40;65.00
76537;DHT22;65381;51.254;15.592;2023-02-18T04:15:08;6.50;64.70
76537;DHT22;65381;51.254;15.592;2023-02-18T04:17:36;6.60;64.40
76537;DHT22;65381;51.254;15.592;2023-02-18T04:20:06;6.60;64.50
76537;DHT22;65381;51.254;15.592;2023-02-18T04:22:33;6.60;64.50
76537;DHT22;65381;51.254;15.592;2023-02-18T04:25:04;6.70;64.00
76537;DHT22;65381;51.254;15.592;2023-02-18T04:27:32;6.70;64.10
76537;DHT22;65381;51.254;15.592;2023-02-18T04:30:02;6.70;64.00
76537;DHT22;65381;51.254;15.592;2023-02-18T04:32:30;6.80;63.60
76537;DHT22;65381;51.254;15.592;2023-02-18T04:34:58;6.80;63.60
76537;DHT22;65381;51.254;15.592;2023-02-18T04:37:26;6.80;63.70
76537;DHT22;65381;51.254;15.592;2023-02-18T04:39:55;6.80;63.60
76537;DHT22;65381;51.254;15.592;2023-02-18T04:42:23;6.80;63.40
76537;DHT22;65381;51.254;15.592;2023-02-18T04:44:51;6.80;63.20
76537;DHT22;65381;51.254;15.592;2023-02-18T04:47:19;6.90;63.40
76537;DHT22;65381;51.254;15.592;2023-02-18T04:49:57;6.90;63.40
76537;DHT22;65381;51.254;15.592;2023-02-18T04:52:25;6.90;63.30
76537;DHT22;65381;51.254;15.592;2023-02-18T04:54:54;6.80;63.40
76537;DHT22;65381;51.254;15.592;2023-02-18T04:57:23;6.80;63.10
76537;DHT22;65381;51.254;15.592;2023-02-18T04:59:53;6.90;63.10
76537;DHT22;65381;51.254;15.592;2023-02-18T05:02:20;6.80;62.90
76537;DHT22;65381;51.254;15.592;2023-02-18T05:04:49;6.80;62.90
76537;DHT22;65381;51.254;15.592;2023-02-18T05:07:18;6.90;63.10
76537;DHT22;65381;51.254;15.592;2023-02-18T05:09:46;6.90;63.30
76537;DHT22;65381;51.254;15.592;2023-02-18T05:12:14;6.90;63.40
76537;DHT22;65381;51.254;15.592;2023-02-18T05:14:44;6.90;63.30
76537;DHT22;65381;51.254;15.592;2023-02-18T05:17:12;6.90;63.20
76537;DHT22;65381;51.254;15.592;2023-02-18T05:19:40;6.80;63.20
76537;DHT22;65381;51.254;15.592;2023-02-18T05:22:08;6.90;63.10
76537;DHT22;65381;51.254;15.592;2023-02-18T05:24:36;6.90;63.20
76537;DHT22;65381;51.254;15.592;2023-02-18T05:27:03;6.80;63.40
76537;DHT22;65381;51.254;15.592;2023-02-18T05:29:32;6.80;63.40
76537;DHT22;65381;51.254;15.592;2023-02-18T05:32:01;6.80;63.60
76537;DHT22;65381;51.254;15.592;2023-02-18T05:34:29;6.80;63.70
76537;DHT22;65381;51.254;15.592;2023-02-18T05:36:56;6.80;63.80
76537;DHT22;65381;51.254;15.592;2023-02-18T05:39:25;6.80;63.80
76537;DHT22;65381;51.254;15.592;2023-02-18T05:41:53;6.80;63.90
76537;DHT22;65381;51.254;15.592;2023-02-18T05:44:21;6.80;63.90
76537;DHT22;65381;51.254;15.592;2023-02-18T05:47:05;6.80;64.00
76537;DHT22;65381;51.254;15.592;2023-02-18T05:49:35;6.80;64.00
76537;DHT22;65381;51.254;15.592;2023-02-18T05:52:04;6.80;64.00
76537;DHT22;65381;51.254;15.592;2023-02-18T05:54:33;6.80;64.00
76537;DHT22;65381;51.254;15.592;2023-02-18T05:57:01;6.80;64.10
76537;DHT22;65381;51.254;15.592;2023-02-18T05:59:29;6.80;64.00
76537;DHT22;65381;51.254;15.592;2023-02-18T06:01:58;6.80;64.00
76537;DHT22;65381;51.254;15.592;2023-02-18T06:04:26;6.80;63.70
76537;DHT22;65381;51.254;15.592;2023-02-18T06:06:55;6.80;63.70
76537;DHT22;65381;51.254;15.592;2023-02-18T06:09:23;6.90;63.70
76537;DHT22;65381;51.254;15.592;2023-02-18T06:11:51;6.90;63.80
76537;DHT22;65381;51.254;15.592;2023-02-18T06:14:19;6.90;63.80
76537;DHT22;65381;51.254;15.592;2023-02-18T06:16:47;6.90;63.50
76537;DHT22;65381;51.254;15.592;2023-02-18T06:19:16;7.00;63.50
76537;DHT22;65381;51.254;15.592;2023-02-18T06:21:44;7.00;63.60
76537;DHT22;65381;51.254;15.592;2023-02-18T06:24:12;7.00;63.50
76537;DHT22;65381;51.254;15.592;2023-02-18T06:26:40;7.00;63.50
76537;DHT22;65381;51.254;15.592;2023-02-18T06:29:08;7.00;63.50
76537;DHT22;65381;51.254;15.592;2023-02-18T06:31:36;7.00;63.50
76537;DHT22;65381;51.254;15.592;2023-02-18T06:34:05;7.00;63.40
76537;DHT22;65381;51.254;15.592;2023-02-18T06:36:33;7.00;63.60
76537;DHT22;65381;51.254;15.592;2023-02-18T06:39:04;7.10;63.60
76537;DHT22;65381;51.254;15.592;2023-02-18T06:41:32;7.20;63.60
76537;DHT22;65381;51.254;15.592;2023-02-18T06:44:00;7.20;63.60
76537;DHT22;65381;51.254;15.592;2023-02-18T06:46:28;7.20;63.60
76537;DHT22;65381;51.254;15.592;2023-02-18T06:48:56;7.20;63.60
76537;DHT22;65381;51.254;15.592;2023-02-18T06:51:24;7.30;63.70
76537;DHT22;65381;51.254;15.592;2023-02-18T06:53:53;7.40;63.60
76537;DHT22;65381;51.254;15.592;2023-02-18T06:56:21;7.40;63.60
76537;DHT22;65381;51.254;15.592;2023-02-18T06:58:49;7.40;63.60
76537;DHT22;65381;51.254;15.592;2023-02-18T07:01:16;7.50;63.50
76537;DHT22;65381;51.254;15.592;2023-02-18T07:03:46;7.50;63.60
76537;DHT22;65381;51.254;15.592;2023-02-18T07:06:16;7.50;63.70
76537;DHT22;65381;51.254;15.592;2023-02-18T07:08:44;7.50;63.70
76537;DHT22;65381;51.254;15.592;2023-02-18T07:11:12;7.60;63.90
76537;DHT22;65381;51.254;15.592;2023-02-18T07:13:41;7.60;64.00
76537;DHT22;65381;51.254;15.592;2023-02-18T07:16:09;7.70;64.00
76537;DHT22;65381;51.254;15.592;2023-02-18T07:18:38;7.80;64.10
76537;DHT22;65381;51.254;15.592;2023-02-18T07:21:06;7.80;64.10
76537;DHT22;65381;51.254;15.592;2023-02-18T07:23:35;7.80;64.10
76537;DHT22;65381;51.254;15.592;2023-02-18T07:26:06;7.80;64.10
76537;DHT22;65381;51.254;15.592;2023-02-18T07:28:35;7.80;64.20
76537;DHT22;65381;51.254;15.592;2023-02-18T07:31:03;7.80;64.30
76537;DHT22;65381;51.254;15.592;2023-02-18T07:33:33;7.80;64.30
76537;DHT22;65381;51.254;15.592;2023-02-18T07:36:01;7.80;64.50
76537;DHT22;65381;51.254;15.592;2023-02-18T07:38:30;7.90;64.50
76537;DHT22;65381;51.254;15.592;2023-02-18T07:40:59;7.90;64.50
76537;DHT22;65381;51.254;15.592;2023-02-18T07:43:28;7.90;64.50
76537;DHT22;65381;51.254;15.592;2023-02-18T07:45:56;8.00;64.60
76537;DHT22;65381;51.254;15.592;2023-02-18T07:48:26;8.00;64.60
76537;DHT22;65381;51.254;15.592;2023-02-18T07:50:54;8.00;64.70
76537;DHT22;65381;51.254;15.592;2023-02-18T07:53:22;8.00;64.80
76537;DHT22;65381;51.254;15.592;2023-02-18T07:55:51;8.00;64.90
76537;DHT22;65381;51.254;15.592;2023-02-18T07:58:27;8.00;65.00
76537;DHT22;65381;51.254;15.592;2023-02-18T08:00:56;8.00;65.00
76537;DHT22;65381;51.254;15.592;2023-02-18T08:03:30;8.00;65.00
76537;DHT22;65381;51.254;15.592;2023-02-18T08:06:02;8.00;65.10
76537;DHT22;65381;51.254;15.592;2023-02-18T08:08:32;8.00;65.10
76537;DHT22;65381;51.254;15.592;2023-02-18T08:11:04;8.00;65.20
76537;DHT22;65381;51.254;15.592;2023-02-18T08:13:47;8.00;65.20
76537;DHT22;65381;51.254;15.592;2023-02-18T08:16:18;8.10;65.30
76537;DHT22;65381;51.254;15.592;2023-02-18T08:18:52;8.10;65.30
76537;DHT22;65381;51.254;15.592;2023-02-18T08:21:23;8.10;65.40
76537;DHT22;65381;51.254;15.592;2023-02-18T08:23:57;8.10;65.50
76537;DHT22;65381;51.254;15.592;2023-02-18T08:26:26;8.10;65.60
76537;DHT22;65381;51.254;15.592;2023-02-18T08:28:58;8.10;65.60
76537;DHT22;65381;51.254;15.592;2023-02-18T08:31:27;8.00;65.70
76537;DHT22;65381;51.254;15.592;2023-02-18T08:33:59;8.00;65.80
76537;DHT22;65381;51.254;15.592;2023-02-18T08:36:28;8.10;65.90
76537;DHT22;65381;51.254;15.592;2023-02-18T08:38:57;8.00;66.10
76537;DHT22;65381;51.254;15.592;2023-02-18T08:41:30;8.00;66.20
76537;DHT22;65381;51.254;15.592;2023-02-18T08:43:58;8.00;66.40
76537;DHT22;65381;51.254;15.592;2023-02-18T08:46:28;7.90;66.50
76537;DHT22;65381;51.254;15.592;2023-02-18T08:49:04;7.80;66.70
76537;DHT22;65381;51.254;15.592;2023-02-18T08:51:32;7.80;66.90
76537;DHT22;65381;51.254;15.592;2023-02-18T08:54:03;7.80;67.10
76537;DHT22;65381;51.254;15.592;2023-02-18T08:56:36;7.60;67.20
76537;DHT22;65381;51.254;15.592;2023-02-18T08:59:05;7.50;67.60
76537;DHT22;65381;51.254;15.592;2023-02-18T09:01:33;7.50;67.70
76537;DHT22;65381;51.254;15.592;2023-02-18T09:04:02;7.50;67.90
76537;DHT22;65381;51.254;15.592;2023-02-18T09:06:31;7.50;68.00
76537;DHT22;65381;51.254;15.592;2023-02-18T09:08:59;7.50;68.20
76537;DHT22;65381;51.254;15.592;2023-02-18T09:11:29;7.60;68.30
76537;DHT22;65381;51.254;15.592;2023-02-18T09:13:59;7.60;68.50
76537;DHT22;65381;51.254;15.592;2023-02-18T09:16:28;7.60;68.60
76537;DHT22;65381;51.254;15.592;2023-02-18T09:18:57;7.60;68.70
76537;DHT22;65381;51.254;15.592;2023-02-18T09:21:26;7.70;68.80
76537;DHT22;65381;51.254;15.592;2023-02-18T09:23:57;7.80;69.00
76537;DHT22;65381;51.254;15.592;2023-02-18T09:26:25;7.70;69.20
76537;DHT22;65381;51.254;15.592;2023-02-18T09:28:55;7.80;69.50
76537;DHT22;65381;51.254;15.592;2023-02-18T09:31:24;7.80;69.80
76537;DHT22;65381;51.254;15.592;2023-02-18T09:33:56;7.80;70.00
76537;DHT22;65381;51.254;15.592;2023-02-18T09:36:25;7.80;70.10
76537;DHT22;65381;51.254;15.592;2023-02-18T09:38:55;7.80;70.20
76537;DHT22;65381;51.254;15.592;2023-02-18T09:41:46;7.70;70.40
76537;DHT22;65381;51.254;15.592;2023-02-18T09:44:28;7.60;70.80
76537;DHT22;65381;51.254;15.592;2023-02-18T09:46:59;7.60;71.00
76537;DHT22;65381;51.254;15.592;2023-02-18T09:49:31;7.80;70.90
76537;DHT22;65381;51.254;15.592;2023-02-18T09:52:17;7.80;70.80
76537;DHT22;65381;51.254;15.592;2023-02-18T09:54:48;8.00;70.80
76537;DHT22;65381;51.254;15.592;2023-02-18T09:57:41;8.00;70.80
76537;DHT22;65381;51.254;15.592;2023-02-18T10:00:35;8.00;71.20
76537;DHT22;65381;51.254;15.592;2023-02-18T10:03:09;8.00;71.20
76537;DHT22;65381;51.254;15.592;2023-02-18T10:08:43;8.00;71.30
76537;DHT22;65381;51.254;15.592;2023-02-18T10:11:26;8.00;71.40
76537;DHT22;65381;51.254;15.592;2023-02-18T10:13:57;7.90;71.60
76537;DHT22;65381;51.254;15.592;2023-02-18T10:16:37;8.00;71.80
76537;DHT22;65381;51.254;15.592;2023-02-18T10:21:53;8.00;72.00
76537;DHT22;65381;51.254;15.592;2023-02-18T10:24:29;8.00;72.10
76537;DHT22;65381;51.254;15.592;2023-02-18T10:26:59;8.00;72.20
76537;DHT22;65381;51.254;15.592;2023-02-18T10:29:35;8.10;72.30
76537;DHT22;65381;51.254;15.592;2023-02-18T10:35:22;8.00;72.40
76537;DHT22;65381;51.254;15.592;2023-02-18T10:38:28;7.80;72.60
76537;DHT22;65381;51.254;15.592;2023-02-18T10:49:58;7.70;73.20
76537;DHT22;65381;51.254;15.592;2023-02-18T10:52:32;7.60;73.30
76537;DHT22;65381;51.254;15.592;2023-02-18T10:55:06;7.70;73.30
76537;DHT22;65381;51.254;15.592;2023-02-18T10:57:53;7.70;73.50
76537;DHT22;65381;51.254;15.592;2023-02-18T11:00:24;7.60;73.60
76537;DHT22;65381;51.254;15.592;2023-02-18T11:03:15;7.50;73.90
76537;DHT22;65381;51.254;15.592;2023-02-18T11:05:44;7.50;74.10
76537;DHT22;65381;51.254;15.592;2023-02-18T11:08:18;7.50;74.00
76537;DHT22;65381;51.254;15.592;2023-02-18T11:10:48;7.50;74.30
76537;DHT22;65381;51.254;15.592;2023-02-18T11:13:29;7.50;74.50
76537;DHT22;65381;51.254;15.592;2023-02-18T11:16:08;7.50;74.80
76537;DHT22;65381;51.254;15.592;2023-02-18T11:18:43;7.50;74.70
76537;DHT22;65381;51.254;15.592;2023-02-18T11:23:58;7.50;74.90
76537;DHT22;65381;51.254;15.592;2023-02-18T11:26:38;7.50;74.90
76537;DHT22;65381;51.254;15.592;2023-02-18T11:29:19;7.50;75.00
76537;DHT22;65381;51.254;15.592;2023-02-18T11:31:51;7.50;75.00
76537;DHT22;65381;51.254;15.592;2023-02-18T11:34:25;7.50;75.00
76537;DHT22;65381;51.254;15.592;2023-02-18T11:37:07;7.60;75.00
76537;DHT22;65381;51.254;15.592;2023-02-18T11:39:42;7.50;75.20
76537;DHT22;65381;51.254;15.592;2023-02-18T11:42:14;7.50;75.30
76537;DHT22;65381;51.254;15.592;2023-02-18T11:44:57;7.50;75.50
76537;DHT22;65381;51.254;15.592;2023-02-18T11:47:34;7.50;75.70
76537;DHT22;65381;51.254;15.592;2023-02-18T11:50:10;7.60;75.70
76537;DHT22;65381;51.254;15.592;2023-02-18T11:52:47;7.60;75.70
76537;DHT22;65381;51.254;15.592;2023-02-18T11:55:27;7.60;75.90
76537;DHT22;65381;51.254;15.592;2023-02-18T11:58:00;7.60;75.90
76537;DHT22;65381;51.254;15.592;2023-02-18T12:00:44;7.70;76.00
76537;DHT22;65381;51.254;15.592;2023-02-18T12:03:43;7.60;76.20
76537;DHT22;65381;51.254;15.592;2023-02-18T12:06:27;7.70;76.40
76537;DHT22;65381;51.254;15.592;2023-02-18T12:09:44;7.80;76.30
76537;DHT22;65381;51.254;15.592;2023-02-18T12:12:48;7.80;76.40
76537;DHT22;65381;51.254;15.592;2023-02-18T12:15:25;7.90;76.50
76537;DHT22;65381;51.254;15.592;2023-02-18T12:18:23;8.00;76.70
76537;DHT22;65381;51.254;15.592;2023-02-18T12:21:09;8.00;77.30
76537;DHT22;65381;51.254;15.592;2023-02-18T12:27:05;8.10;77.90
76537;DHT22;65381;51.254;15.592;2023-02-18T12:39:10;8.60;80.40
76537;DHT22;65381;51.254;15.592;2023-02-18T12:45:00;9.00;80.70
76537;DHT22;65381;51.254;15.592;2023-02-18T12:48:36;9.20;81.80
76537;DHT22;65381;51.254;15.592;2023-02-18T12:51:08;9.20;82.00
76537;DHT22;65381;51.254;15.592;2023-02-18T13:11:03;9.50;83.20
76537;DHT22;65381;51.254;15.592;2023-02-18T13:13:41;9.50;83.20
76537;DHT22;65381;51.254;15.592;2023-02-18T13:16:16;9.60;83.20
76537;DHT22;65381;51.254;15.592;2023-02-18T13:22:03;9.60;83.70
76537;DHT22;65381;51.254;15.592;2023-02-18T13:24:57;9.70;83.50
76537;DHT22;65381;51.254;15.592;2023-02-18T13:27:45;9.70;83.40
76537;DHT22;65381;51.254;15.592;2023-02-18T13:30:44;9.80;83.70
76537;DHT22;65381;51.254;15.592;2023-02-18T13:39:08;9.80;83.90
76537;DHT22;65381;51.254;15.592;2023-02-18T13:42:26;9.90;83.70
76537;DHT22;65381;51.254;15.592;2023-02-18T13:45:21;10.00;84.00
76537;DHT22;65381;51.254;15.592;2023-02-18T13:48:20;10.00;84.00
76537;DHT22;65381;51.254;15.592;2023-02-18T13:51:48;10.00;84.00
76537;DHT22;65381;51.254;15.592;2023-02-18T13:57:01;10.10;84.20
76537;DHT22;65381;51.254;15.592;2023-02-18T13:59:44;10.10;84.20
76537;DHT22;65381;51.254;15.592;2023-02-18T14:05:38;10.10;84.20
76537;DHT22;65381;51.254;15.592;2023-02-18T14:08:15;10.10;84.70
76537;DHT22;65381;51.254;15.592;2023-02-18T14:11:24;10.10;84.90
76537;DHT22;65381;51.254;15.592;2023-02-18T14:17:22;10.10;85.00
76537;DHT22;65381;51.254;15.592;2023-02-18T14:22:50;10.20;85.50
76537;DHT22;65381;51.254;15.592;2023-02-18T14:25:37;10.20;85.50
76537;DHT22;65381;51.254;15.592;2023-02-18T14:42:19;10.30;85.10
76537;DHT22;65381;51.254;15.592;2023-02-18T14:50:50;10.30;84.60
76537;DHT22;65381;51.254;15.592;2023-02-18T14:53:22;10.30;84.50
76537;DHT22;65381;51.254;15.592;2023-02-18T14:56:02;10.20;84.50
76537;DHT22;65381;51.254;15.592;2023-02-18T14:58:38;10.10;84.60
76537;DHT22;65381;51.254;15.592;2023-02-18T15:01:21;10.10;84.70
76537;DHT22;65381;51.254;15.592;2023-02-18T15:03:53;10.00;84.70
76537;DHT22;65381;51.254;15.592;2023-02-18T15:06:35;10.00;84.70
76537;DHT22;65381;51.254;15.592;2023-02-18T15:09:20;9.80;84.80
76537;DHT22;65381;51.254;15.592;2023-02-18T15:11:51;9.80;85.10
76537;DHT22;65381;51.254;15.592;2023-02-18T15:14:42;9.70;85.10
76537;DHT22;65381;51.254;15.592;2023-02-18T15:17:17;9.60;85.40
76537;DHT22;65381;51.254;15.592;2023-02-18T15:19:51;9.60;85.40
76537;DHT22;65381;51.254;15.592;2023-02-18T15:22:23;9.60;85.40
76537;DHT22;65381;51.254;15.592;2023-02-18T15:24:54;9.70;85.40
76537;DHT22;65381;51.254;15.592;2023-02-18T15:27:31;9.70;85.30
76537;DHT22;65381;51.254;15.592;2023-02-18T15:30:24;9.70;85.20
76537;DHT22;65381;51.254;15.592;2023-02-18T15:32:59;9.70;85.10
76537;DHT22;65381;51.254;15.592;2023-02-18T15:35:31;9.80;84.90
76537;DHT22;65381;51.254;15.592;2023-02-18T15:38:03;9.80;84.80
76537;DHT22;65381;51.254;15.592;2023-02-18T15:40:34;9.80;84.70
76537;DHT22;65381;51.254;15.592;2023-02-18T15:43:05;9.80;84.60
76537;DHT22;65381;51.254;15.592;2023-02-18T15:45:43;9.90;84.40
76537;DHT22;65381;51.254;15.592;2023-02-18T15:51:05;10.00;84.00
76537;DHT22;65381;51.254;15.592;2023-02-18T15:53:47;10.00;84.00
76537;DHT22;65381;51.254;15.592;2023-02-18T15:56:30;10.00;84.00
76537;DHT22;65381;51.254;15.592;2023-02-18T16:02:16;9.80;84.10
76537;DHT22;65381;51.254;15.592;2023-02-18T16:05:35;9.80;84.00
76537;DHT22;65381;51.254;15.592;2023-02-18T16:07:55;9.80;84.00
76537;DHT22;65381;51.254;15.592;2023-02-18T16:13:04;9.70;84.10
76537;DHT22;65381;51.254;15.592;2023-02-18T16:15:41;9.70;84.20
76537;DHT22;65381;51.254;15.592;2023-02-18T16:21:00;9.60;84.30
76537;DHT22;65381;51.254;15.592;2023-02-18T16:23:34;9.70;84.20
76537;DHT22;65381;51.254;15.592;2023-02-18T16:26:22;9.60;84.40
76537;DHT22;65381;51.254;15.592;2023-02-18T16:29:22;9.60;84.50
76537;DHT22;65381;51.254;15.592;2023-02-18T16:31:49;9.60;84.40
76537;DHT22;65381;51.254;15.592;2023-02-18T16:34:19;9.60;84.50
76537;DHT22;65381;51.254;15.592;2023-02-18T16:36:48;9.60;84.50
76537;DHT22;65381;51.254;15.592;2023-02-18T16:39:35;9.60;84.50
76537;DHT22;65381;51.254;15.592;2023-02-18T16:42:12;9.50;84.60
76537;DHT22;65381;51.254;15.592;2023-02-18T16:44:42;9.50;84.70
76537;DHT22;65381;51.254;15.592;2023-02-18T16:47:14;9.50;84.80
76537;DHT22;65381;51.254;15.592;2023-02-18T16:49:50;9.40;85.00
76537;DHT22;65381;51.254;15.592;2023-02-18T16:52:19;9.40;85.10
76537;DHT22;65381;51.254;15.592;2023-02-18T16:54:47;9.40;85.20
76537;DHT22;65381;51.254;15.592;2023-02-18T16:57:28;9.40;85.30
76537;DHT22;65381;51.254;15.592;2023-02-18T16:59:57;9.40;85.40
76537;DHT22;65381;51.254;15.592;2023-02-18T17:02:26;9.40;85.40
76537;DHT22;65381;51.254;15.592;2023-02-18T17:04:58;9.40;85.40
76537;DHT22;65381;51.254;15.592;2023-02-18T17:07:26;9.40;85.40
76537;DHT22;65381;51.254;15.592;2023-02-18T17:09:57;9.40;85.40
76537;DHT22;65381;51.254;15.592;2023-02-18T17:12:27;9.40;85.40
76537;DHT22;65381;51.254;15.592;2023-02-18T17:14:55;9.40;85.30
76537;DHT22;65381;51.254;15.592;2023-02-18T17:17:24;9.40;85.30
76537;DHT22;65381;51.254;15.592;2023-02-18T17:19:52;9.40;85.30
76537;DHT22;65381;51.254;15.592;2023-02-18T17:22:24;9.40;85.30
76537;DHT22;65381;51.254;15.592;2023-02-18T17:24:53;9.40;85.40
76537;DHT22;65381;51.254;15.592;2023-02-18T17:27:23;9.40;85.40
76537;DHT22;65381;51.254;15.592;2023-02-18T17:29:51;9.40;85.20
76537;DHT22;65381;51.254;15.592;2023-02-18T17:32:21;9.50;85.10
76537;DHT22;65381;51.254;15.592;2023-02-18T17:34:56;9.50;85.10
76537;DHT22;65381;51.254;15.592;2023-02-18T17:37:28;9.50;85.00
76537;DHT22;65381;51.254;15.592;2023-02-18T17:39:56;9.50;84.90
76537;DHT22;65381;51.254;15.592;2023-02-18T17:42:26;9.50;84.80
76537;DHT22;65381;51.254;15.592;2023-02-18T17:44:57;9.40;84.90
76537;DHT22;65381;51.254;15.592;2023-02-18T17:47:28;9.40;84.90
76537;DHT22;65381;51.254;15.592;2023-02-18T17:49:58;9.30;85.10
76537;DHT22;65381;51.254;15.592;2023-02-18T17:52:29;9.20;85.10
76537;DHT22;65381;51.254;15.592;2023-02-18T17:55:16;9.20;85.30
76537;DHT22;65381;51.254;15.592;2023-02-18T17:57:47;9.20;85.40
76537;DHT22;65381;51.254;15.592;2023-02-18T18:00:21;9.20;85.40
76537;DHT22;65381;51.254;15.592;2023-02-18T18:02:59;9.20;85.50
76537;DHT22;65381;51.254;15.592;2023-02-18T18:05:43;9.20;85.70
76537;DHT22;65381;51.254;15.592;2023-02-18T18:08:16;9.20;85.50
76537;DHT22;65381;51.254;15.592;2023-02-18T18:10:56;9.30;85.50
76537;DHT22;65381;51.254;15.592;2023-02-18T18:13:29;9.30;85.50
76537;DHT22;65381;51.254;15.592;2023-02-18T18:16:00;9.40;85.50
76537;DHT22;65381;51.254;15.592;2023-02-18T18:18:30;9.40;85.40
76537;DHT22;65381;51.254;15.592;2023-02-18T18:21:17;9.50;85.20
76537;DHT22;65381;51.254;15.592;2023-02-18T18:23:53;9.50;85.10
76537;DHT22;65381;51.254;15.592;2023-02-18T18:26:26;9.50;85.00
76537;DHT22;65381;51.254;15.592;2023-02-18T18:28:56;9.40;85.10
76537;DHT22;65381;51.254;15.592;2023-02-18T18:31:26;9.50;85.10
76537;DHT22;65381;51.254;15.592;2023-02-18T18:34:02;9.50;85.20
76537;DHT22;65381;51.254;15.592;2023-02-18T18:36:36;9.50;85.10
76537;DHT22;65381;51.254;15.592;2023-02-18T18:39:09;9.50;85.10